Time;durP1;ratioP1;P1;durP2;ratioP2;P2;SDS_P1;SDS_P2;PMS_P1;PMS_P2;Temp;Humidity;BMP_temperature;BMP_pressure;BME280_temperature;BME280_humidity;BME280_pressure;Samples;Min_cycle;Max_cycle;Signal;HPM_P1;HPM_P2
2021/08/20 00:01:40;;;;;;;4.58;2.93;;;;;;;16.90;68.27;96762.78;127579;1093;24441;-83
2021/08/20 00:04:12;;;;;;;5.90;3.33;;;;;;;16.90;68.38;96751.29;127582;1093;24771;-84
2021/08/20 00:06:43;;;;;;;5.83;3.35;;;;;;;16.91;68.18;96747.50;127640;1093;23709;-82
2021/08/20 00:09:15;;;;;;;6.37;3.60;;;;;;;16.86;68.24;96755.67;127574;1093;27808;-82
2021/08/20 00:11:46;;;;;;;5.45;3.55;;;;;;;16.82;68.30;96757.41;127586;1093;24429;-82
2021/08/20 00:14:18;;;;;;;3.45;2.35;;;;;;;16.82;68.38;96760.88;127607;1093;25531;-83
2021/08/20 00:16:49;;;;;;;9.78;4.90;;;;;;;16.81;68.49;96755.84;127595;1093;25201;-82
2021/08/20 00:19:21;;;;;;;8.95;3.95;;;;;;;16.76;68.38;96756.01;127622;1093;23394;-82
2021/08/20 00:21:52;;;;;;;8.90;4.10;;;;;;;16.71;68.75;96751.58;127751;1093;22829;-83
2021/08/20 00:24:23;;;;;;;5.83;3.73;;;;;;;16.66;68.89;96749.03;127619;1092;22810;-83
2021/08/20 00:26:55;;;;;;;5.55;3.50;;;;;;;16.62;68.96;96746.20;127600;1093;23499;-82
2021/08/20 00:29:27;;;;;;;4.83;3.30;;;;;;;16.60;68.87;96755.62;127590;1093;22855;-82
2021/08/20 00:31:58;;;;;;;5.83;3.05;;;;;;;16.56;69.35;96752.00;127570;1093;29816;-82
2021/08/20 00:34:30;;;;;;;5.43;2.83;;;;;;;16.48;69.97;96750.91;127578;1092;27683;-82
2021/08/20 00:37:10;;;;;;;4.35;2.70;;;;;;;16.42;70.38;96752.13;127588;1093;29472;-82
2021/08/20 00:39:41;;;;;;;4.23;2.90;;;;;;;16.35;70.89;96746.47;127660;1093;46339;-82
2021/08/20 00:42:13;;;;;;;4.23;2.38;;;;;;;16.30;71.05;96750.05;127631;1093;26261;-82
2021/08/20 00:44:44;;;;;;;4.55;2.83;;;;;;;16.26;71.06;96749.11;127647;1092;24746;-82
2021/08/20 00:47:16;;;;;;;3.33;2.40;;;;;;;16.26;71.15;96745.64;127586;1093;24399;-83
2021/08/20 00:49:47;;;;;;;3.85;2.50;;;;;;;16.22;71.46;96747.38;127560;1093;23144;-82
2021/08/20 00:52:20;;;;;;;4.25;2.40;;;;;;;16.20;71.37;96744.22;127586;1093;22842;-83
2021/08/20 00:54:51;;;;;;;4.25;2.80;;;;;;;16.18;71.35;96744.52;127632;1093;27502;-83
2021/08/20 00:57:23;;;;;;;5.10;2.77;;;;;;;16.19;71.46;96737.30;127662;1092;22797;-82
2021/08/20 00:59:54;;;;;;;4.50;2.58;;;;;;;16.19;71.31;96739.98;127616;1093;22761;-82
2021/08/20 01:02:26;;;;;;;4.63;3.08;;;;;;;16.16;71.79;96738.69;127546;1093;24885;-82
2021/08/20 01:04:57;;;;;;;4.65;3.08;;;;;;;16.14;71.92;96743.56;127573;1093;24180;-81
2021/08/20 01:07:36;;;;;;;5.40;2.95;;;;;;;16.13;71.95;96733.97;127620;1093;23074;-82
2021/08/20 01:10:11;;;;;;;3.90;2.55;;;;;;;16.10;72.17;96739.16;127544;1093;27946;-83
2021/08/20 01:12:42;;;;;;;3.75;2.40;;;;;;;16.10;72.24;96736.48;127607;1093;22803;-82
2021/08/20 01:15:14;;;;;;;4.70;2.80;;;;;;;16.13;72.14;96738.53;127609;1092;25447;-83
2021/08/20 01:17:46;;;;;;;5.68;2.98;;;;;;;16.13;72.01;96738.53;127587;1093;24268;-82
2021/08/20 01:20:19;;;;;;;3.78;2.85;;;;;;;16.14;71.73;96737.42;127602;1093;24559;-82
2021/08/20 01:22:51;;;;;;;3.63;2.50;;;;;;;16.18;71.96;96738.38;127690;1093;28785;-82
2021/08/20 01:25:22;;;;;;;5.20;3.08;;;;;;;16.18;71.63;96735.70;127706;1093;27436;-82
2021/08/20 01:28:07;;;;;;;6.65;3.23;;;;;;;16.19;71.73;96737.30;127672;1093;28399;-83
2021/08/20 01:30:39;;;;;;;4.20;2.88;;;;;;;16.21;71.61;96741.23;127689;1093;33254;-83
2021/08/20 01:33:10;;;;;;;9.73;3.80;;;;;;;16.20;71.51;96739.66;127575;1093;27652;-83
2021/08/20 01:35:47;;;;;;;6.33;3.50;;;;;;;16.21;71.37;96735.89;127563;1092;25696;-83
2021/08/20 01:38:18;;;;;;;6.18;3.40;;;;;;;16.24;71.37;96737.15;127580;1092;33497;-83
2021/08/20 01:40:50;;;;;;;6.13;2.98;;;;;;;16.26;71.02;96737.63;127638;1093;24847;-83
2021/08/20 01:43:22;;;;;;;4.97;3.07;;;;;;;16.28;71.02;96736.20;127703;1093;27422;-83
2021/08/20 01:45:53;;;;;;;4.35;2.93;;;;;;;16.30;71.10;96743.91;127621;1092;28016;-83
2021/08/20 01:48:25;;;;;;;3.55;2.38;;;;;;;16.32;70.59;96731.80;127653;1093;22802;-83
2021/08/20 01:50:56;;;;;;;4.48;2.58;;;;;;;16.37;70.69;96733.56;127567;1093;23118;-83
2021/08/20 01:53:27;;;;;;;4.93;2.38;;;;;;;16.39;70.63;96730.57;127606;1093;23275;-82
2021/08/20 01:55:59;;;;;;;4.38;3.05;;;;;;;16.42;70.46;96727.27;127596;1093;24433;-81
2021/08/20 01:58:30;;;;;;;5.33;3.07;;;;;;;16.43;70.40;96734.97;127616;1093;23467;-82
2021/08/20 02:01:02;;;;;;;4.13;2.78;;;;;;;16.45;70.07;96727.42;127638;1093;23496;-82
2021/08/20 02:03:33;;;;;;;5.45;2.75;;;;;;;16.48;70.00;96729.49;127618;1093;24978;-82
2021/08/20 02:06:04;;;;;;;4.70;2.73;;;;;;;16.50;70.13;96724.61;127680;1093;22807;-82
2021/08/20 02:08:37;;;;;;;4.45;2.55;;;;;;;16.50;70.42;96729.17;127722;1092;25873;-82
2021/08/20 02:11:09;;;;;;;3.88;2.50;;;;;;;16.44;70.87;96736.55;127724;1092;27828;-83
2021/08/20 02:13:41;;;;;;;7.20;2.60;;;;;;;16.40;71.07;96732.92;127611;1093;24135;-83
2021/08/20 02:16:13;;;;;;;4.98;2.80;;;;;;;16.33;71.34;96738.75;127589;1093;22853;-83
2021/08/20 02:18:45;;;;;;;6.58;2.98;;;;;;;16.30;71.46;96738.56;127578;1093;41426;-83
2021/08/20 02:21:16;;;;;;;3.73;2.30;;;;;;;16.28;71.72;96733.53;127615;1092;24375;-82
2021/08/20 02:23:48;;;;;;;4.38;2.65;;;;;;;16.30;71.49;96739.35;127633;1093;27611;-83
2021/08/20 02:26:19;;;;;;;4.03;2.60;;;;;;;16.30;71.22;96734.00;127608;1092;24995;-83
2021/08/20 02:28:50;;;;;;;4.68;2.80;;;;;;;16.33;71.11;96732.61;127759;1093;24764;-82
2021/08/20 02:31:22;;;;;;;5.75;3.50;;;;;;;16.36;71.45;96736.55;127604;1093;25299;-83
2021/08/20 02:33:53;;;;;;;5.55;3.10;;;;;;;16.35;71.43;96735.77;127625;1093;30600;-83
2021/08/20 02:36:25;;;;;;;4.60;3.00;;;;;;;16.32;71.19;96736.36;127601;1093;32100;-81
2021/08/20 02:38:56;;;;;;;4.83;2.73;;;;;;;16.36;70.97;96734.66;127578;1093;25887;-82
2021/08/20 02:41:29;;;;;;;4.30;2.50;;;;;;;16.40;70.78;96737.49;127557;1093;22842;-83
2021/08/20 02:44:00;;;;;;;5.80;2.55;;;;;;;16.41;70.87;96729.15;127570;1093;23706;-82
2021/08/20 02:46:32;;;;;;;4.50;2.85;;;;;;;16.43;70.54;96729.63;127594;1093;26160;-83
2021/08/20 02:49:04;;;;;;;4.05;2.85;;;;;;;16.45;70.78;96738.13;127568;1092;60748;-82
2021/08/20 02:51:35;;;;;;;4.23;2.45;;;;;;;16.45;70.59;96740.80;127637;1092;27359;-83
2021/08/20 02:54:07;;;;;;;3.90;2.53;;;;;;;16.43;70.56;96737.65;127566;1093;22815;-82
2021/08/20 02:56:38;;;;;;;4.00;2.78;;;;;;;16.44;70.53;96739.22;127569;1093;23218;-83
2021/08/20 02:59:09;;;;;;;4.08;2.98;;;;;;;16.47;70.45;96729.78;127559;1093;27883;-83
2021/08/20 03:01:42;;;;;;;4.53;2.53;;;;;;;16.47;70.49;96735.95;127534;1091;23853;-83
2021/08/20 03:04:14;;;;;;;4.98;2.70;;;;;;;16.47;70.49;96732.45;127544;1093;25893;-83
2021/08/20 03:06:45;;;;;;;5.45;2.90;;;;;;;16.47;70.34;96737.80;127639;1093;22827;-83
2021/08/20 03:09:18;;;;;;;4.18;2.38;;;;;;;16.48;70.60;96745.55;127574;1093;27570;-83
2021/08/20 03:11:50;;;;;;;5.23;2.93;;;;;;;16.47;70.61;96738.63;127588;1093;22772;-83
2021/08/20 03:14:21;;;;;;;4.35;2.88;;;;;;;16.48;70.51;96736.73;127654;1093;22786;-83
2021/08/20 03:16:53;;;;;;;5.73;2.73;;;;;;;16.47;70.68;96738.63;127638;1092;22900;-83
2021/08/20 03:19:24;;;;;;;4.60;2.78;;;;;;;16.46;70.64;96736.23;127650;1092;22831;-83
2021/08/20 03:21:56;;;;;;;3.57;2.17;;;;;;;16.46;70.51;96742.38;127513;1093;25830;-82
2021/08/20 03:24:28;;;;;;;6.75;3.13;;;;;;;16.43;70.79;96734.97;127570;1093;25864;-83
2021/08/20 03:26:59;;;;;;;3.95;3.00;;;;;;;16.41;70.82;96745.20;127552;1093;27050;-82
2021/08/20 03:29:31;;;;;;;4.33;2.55;;;;;;;16.39;70.68;96742.06;127619;1093;29421;-83
2021/08/20 03:32:02;;;;;;;3.90;2.58;;;;;;;16.38;70.73;96751.19;127631;1093;25242;-83
2021/08/20 03:34:34;;;;;;;4.93;3.20;;;;;;;16.41;70.75;96739.86;127608;1093;29523;-82
2021/08/20 03:37:06;;;;;;;3.95;2.70;;;;;;;16.45;70.87;96740.02;127655;1093;25081;-83
2021/08/20 03:39:37;;;;;;;6.10;3.03;;;;;;;16.44;70.89;96747.25;127602;1093;25135;-83
2021/08/20 03:42:09;;;;;;;4.23;2.50;;;;;;;16.46;70.83;96745.05;127691;1093;22953;-83
2021/08/20 03:44:40;;;;;;;4.50;2.85;;;;;;;16.43;70.96;96744.89;127702;1093;23632;-83
2021/08/20 03:47:12;;;;;;;3.90;2.68;;;;;;;16.44;70.82;96755.28;127735;1093;22832;-83
2021/08/20 03:49:43;;;;;;;3.65;2.63;;;;;;;16.44;71.18;96755.28;127618;1093;28127;-83
2021/08/20 03:52:15;;;;;;;5.05;2.98;;;;;;;16.39;71.11;96752.76;127577;1093;26926;-82
2021/08/20 03:54:46;;;;;;;6.53;2.85;;;;;;;16.37;71.11;96746.16;127471;1093;46576;-83
2021/08/20 03:57:18;;;;;;;3.90;2.43;;;;;;;16.34;71.26;96750.24;127581;1093;24686;-82
2021/08/20 03:59:49;;;;;;;4.53;2.65;;;;;;;16.31;71.20;96748.95;127717;1093;23761;-82
2021/08/20 04:02:20;;;;;;;6.15;2.83;;;;;;;16.33;71.42;96748.67;127616;1093;45924;-83
2021/08/20 04:04:52;;;;;;;3.88;2.53;;;;;;;16.33;71.39;96749.45;127718;1092;30632;-84
2021/08/20 04:07:23;;;;;;;4.78;2.70;;;;;;;16.32;71.31;96747.06;127669;1093;27555;-83
2021/08/20 04:09:55;;;;;;;6.03;3.05;;;;;;;16.30;71.26;96759.97;127621;1093;30127;-82
2021/08/20 04:12:26;;;;;;;4.13;2.55;;;;;;;16.28;71.69;96756.82;127582;1093;29004;-82
2021/08/20 04:14:57;;;;;;;4.60;2.88;;;;;;;16.28;71.58;96756.82;127587;1093;26447;-83
2021/08/20 04:17:29;;;;;;;3.98;2.60;;;;;;;16.28;71.54;96756.82;127562;1093;27747;-82
2021/08/20 04:20:00;;;;;;;4.08;2.55;;;;;;;16.28;71.53;96756.82;127558;1093;26103;-83
2021/08/20 04:22:32;;;;;;;3.45;2.45;;;;;;;16.26;71.65;96759.02;127544;1093;25055;-83
2021/08/20 04:25:03;;;;;;;4.13;2.80;;;;;;;16.26;71.63;96756.34;127584;1092;26267;-82
2021/08/20 04:27:35;;;;;;;4.80;3.03;;;;;;;16.27;71.58;96756.03;127569;1093;26962;-83
2021/08/20 04:30:07;;;;;;;3.35;2.28;;;;;;;16.29;71.74;96753.05;127574;1093;29145;-82
2021/08/20 04:32:39;;;;;;;4.60;2.80;;;;;;;16.29;71.43;96753.05;127558;1093;29229;-83
2021/08/20 04:35:11;;;;;;;4.45;2.63;;;;;;;16.31;71.64;96750.84;127581;1093;28195;-83
2021/08/20 04:37:43;;;;;;;4.80;2.83;;;;;;;16.36;71.91;96756.06;127591;1093;30530;-82
2021/08/20 04:40:15;;;;;;;6.43;3.00;;;;;;;16.41;71.52;96758.59;127574;1093;37540;-83
2021/08/20 04:42:46;;;;;;;7.20;3.50;;;;;;;16.40;71.43;96757.02;127604;1092;26832;-83
2021/08/20 04:45:18;;;;;;;8.67;3.63;;;;;;;16.41;71.38;96752.45;127568;1093;24921;-83
2021/08/20 04:47:49;;;;;;;6.70;3.47;;;;;;;16.43;71.61;96753.70;127573;1093;24897;-83
2021/08/20 04:50:21;;;;;;;7.58;3.53;;;;;;;16.45;71.39;96759.53;127568;1093;26274;-83
2021/08/20 04:52:54;;;;;;;7.70;3.50;;;;;;;16.47;71.57;96759.22;127622;1093;23774;-83
2021/08/20 04:55:26;;;;;;;4.93;3.08;;;;;;;16.49;71.42;96763.18;127566;1093;27105;-82
2021/08/20 04:57:57;;;;;;;5.75;2.78;;;;;;;16.51;71.36;96760.98;127559;1093;35667;-82
2021/08/20 05:00:28;;;;;;;3.90;2.40;;;;;;;16.50;71.54;96759.40;127667;1093;22807;-83
2021/08/20 05:03:01;;;;;;;3.00;2.38;;;;;;;16.48;71.74;96758.92;127568;1093;22814;-82
2021/08/20 05:05:32;;;;;;;4.80;2.20;;;;;;;16.47;71.75;96762.70;127603;1093;26898;-82
2021/08/20 05:08:05;;;;;;;3.60;2.40;;;;;;;16.48;71.96;96761.61;127591;1093;32568;-83
2021/08/20 05:10:36;;;;;;;4.30;2.35;;;;;;;16.46;71.37;96763.78;127555;1093;42752;-83
2021/08/20 05:13:08;;;;;;;3.80;2.43;;;;;;;16.50;71.19;96770.11;127598;1093;25887;-83
2021/08/20 05:15:39;;;;;;;3.88;2.60;;;;;;;16.54;71.78;96775.61;127560;1093;22799;-82
2021/08/20 05:18:11;;;;;;;4.30;2.23;;;;;;;16.53;71.61;96772.16;127557;1093;35809;-83
2021/08/20 05:20:42;;;;;;;3.48;1.85;;;;;;;16.56;71.58;96774.20;127572;1092;24225;-83
2021/08/20 05:23:14;;;;;;;3.98;2.78;;;;;;;16.57;71.49;96767.74;127590;1092;25485;-82
2021/08/20 05:25:46;;;;;;;3.73;2.35;;;;;;;16.63;71.19;96768.40;127581;1093;30533;-83
2021/08/20 05:28:17;;;;;;;4.73;2.85;;;;;;;16.65;71.07;96773.44;127553;1092;26267;-83
2021/08/20 05:30:50;;;;;;;6.18;2.53;;;;;;;16.67;70.89;96776.59;127549;1092;24248;-83
2021/08/20 05:33:21;;;;;;;3.43;2.20;;;;;;;16.72;70.74;96777.23;127645;1093;24530;-83
2021/08/20 05:35:52;;;;;;;3.45;2.25;;;;;;;16.76;70.91;96766.72;127605;1093;22943;-83
2021/08/20 05:38:24;;;;;;;7.95;2.73;;;;;;;16.82;70.46;96776.16;127650;1093;23696;-82
2021/08/20 05:40:56;;;;;;;3.78;2.65;;;;;;;16.88;70.77;96774.89;127624;1091;23969;-82
2021/08/20 05:43:27;;;;;;;4.35;2.35;;;;;;;16.90;70.92;96762.00;127552;1093;30742;-83
2021/08/20 05:45:59;;;;;;;4.18;2.53;;;;;;;16.92;70.83;96770.50;127569;1093;26212;-83
2021/08/20 05:48:30;;;;;;;3.48;2.50;;;;;;;16.97;70.77;96773.02;127612;1093;26488;-82
2021/08/20 05:51:02;;;;;;;3.40;2.38;;;;;;;17.02;70.36;96767.48;127648;1093;24356;-83
2021/08/20 05:53:34;;;;;;;4.83;2.60;;;;;;;17.06;70.45;96768.45;127566;1092;30478;-83
2021/08/20 05:56:06;;;;;;;3.65;2.50;;;;;;;17.07;70.44;96766.56;127531;1093;29354;-83
2021/08/20 05:58:37;;;;;;;4.50;2.68;;;;;;;17.03;70.16;96765.59;127634;1093;22806;-82
2021/08/20 06:01:09;;;;;;;3.90;2.60;;;;;;;17.00;70.13;96767.02;127556;1092;24363;-83
2021/08/20 06:03:40;;;;;;;3.18;2.30;;;;;;;17.01;70.22;96765.13;127542;1093;26061;-83
2021/08/20 06:06:16;;;;;;;5.05;2.63;;;;;;;17.03;70.15;96766.41;127562;1093;34893;-83
2021/08/20 06:08:47;;;;;;;4.65;2.45;;;;;;;17.03;70.12;96769.09;127652;1093;22802;-83
2021/08/20 06:11:19;;;;;;;4.55;2.90;;;;;;;17.05;70.24;96779.48;127509;1093;26479;-83
2021/08/20 06:13:50;;;;;;;3.75;2.65;;;;;;;17.04;70.15;96769.88;127667;1093;23531;-82
2021/08/20 06:16:22;;;;;;;4.18;2.73;;;;;;;17.04;70.10;96781.38;127638;1093;27341;-83
2021/08/20 06:18:54;;;;;;;4.80;2.65;;;;;;;17.07;70.08;96783.42;127665;1093;31707;-82
2021/08/20 06:21:25;;;;;;;4.78;2.50;;;;;;;17.09;70.29;96789.25;127617;1092;26085;-82
2021/08/20 06:23:57;;;;;;;7.18;2.90;;;;;;;17.10;70.25;96779.32;127553;1093;25436;-83
2021/08/20 06:26:28;;;;;;;5.15;2.93;;;;;;;17.13;70.25;96784.83;127560;1093;25748;-82
2021/08/20 06:29:00;;;;;;;6.63;3.18;;;;;;;17.13;70.05;96782.14;127602;1093;24170;-83
2021/08/20 06:31:31;;;;;;;6.35;2.83;;;;;;;17.16;70.43;96783.41;127534;1093;29188;-83
2021/08/20 06:34:03;;;;;;;5.65;2.83;;;;;;;17.18;70.19;96784.69;127565;1092;24755;-83
2021/08/20 06:36:34;;;;;;;7.68;3.90;;;;;;;17.23;70.34;96778.38;127618;1093;32257;-83
2021/08/20 06:39:15;;;;;;;6.25;3.20;;;;;;;17.28;70.00;96777.41;127591;1093;26279;-82
2021/08/20 06:41:46;;;;;;;3.93;2.48;;;;;;;17.32;69.92;96789.88;127575;1093;26032;-83
2021/08/20 06:44:18;;;;;;;4.45;2.90;;;;;;;17.36;69.80;96790.03;127584;1093;24494;-82
2021/08/20 06:46:51;;;;;;;6.03;2.55;;;;;;;17.41;69.66;96789.85;127593;1093;24482;-83
2021/08/20 06:49:22;;;;;;;3.90;3.00;;;;;;;17.48;69.77;96795.53;127641;1093;28744;-82
2021/08/20 06:51:54;;;;;;;5.60;3.00;;;;;;;17.55;69.62;96787.78;127623;1092;24844;-83
2021/08/20 06:54:26;;;;;;;8.10;3.40;;;;;;;17.59;69.85;96799.44;127569;1092;31490;-82
2021/08/20 06:56:57;;;;;;;4.53;3.10;;;;;;;17.63;69.71;96803.08;127592;1093;26159;-82
2021/08/20 06:59:30;;;;;;;5.28;2.88;;;;;;;17.66;69.83;96801.64;127566;1092;27667;-83
2021/08/20 07:02:01;;;;;;;6.05;2.75;;;;;;;17.68;69.53;96802.11;127580;1093;26759;-83
2021/08/20 07:04:34;;;;;;;6.58;2.88;;;;;;;17.65;69.59;96798.17;127555;1093;24776;-83
2021/08/20 07:07:07;;;;;;;4.78;2.90;;;;;;;17.65;69.81;96798.17;127602;1093;27484;-83
2021/08/20 07:09:39;;;;;;;4.48;2.65;;;;;;;17.67;70.11;96803.22;127564;1092;24609;-83
2021/08/20 07:12:11;;;;;;;6.58;3.00;;;;;;;17.72;69.96;96798.49;127611;1093;28438;-83
2021/08/20 07:14:43;;;;;;;4.85;2.65;;;;;;;17.80;69.91;96795.02;127645;1093;26843;-83
2021/08/20 07:17:14;;;;;;;6.35;2.70;;;;;;;17.87;69.61;96794.51;127548;1093;24839;-83
2021/08/20 07:19:46;;;;;;;3.48;2.60;;;;;;;17.96;69.46;96799.86;127603;1092;25707;-83
2021/08/20 07:22:17;;;;;;;3.58;2.80;;;;;;;18.07;69.43;96787.67;127576;1093;23655;-83
2021/08/20 07:24:49;;;;;;;6.48;3.73;;;;;;;18.19;69.24;96803.09;127678;1093;25576;-83
2021/08/20 07:27:21;;;;;;;3.80;2.98;;;;;;;18.33;69.19;96801.77;127734;1093;27984;-83
2021/08/20 07:29:53;;;;;;;3.60;2.68;;;;;;;18.44;69.01;96796.83;127752;1093;26502;-83
2021/08/20 07:32:24;;;;;;;4.40;2.90;;;;;;;18.60;68.96;96794.38;127736;1093;26802;-83
2021/08/20 07:34:56;;;;;;;3.70;2.33;;;;;;;18.66;68.64;96793.09;127590;1093;30917;-83
2021/08/20 07:37:27;;;;;;;5.70;2.65;;;;;;;18.69;67.59;96793.22;127634;1092;23742;-83
2021/08/20 07:40:00;;;;;;;3.55;2.58;;;;;;;18.73;67.74;96796.06;127544;1093;76576;-83
2021/08/20 07:42:32;;;;;;;4.55;2.80;;;;;;;18.77;67.44;96799.66;127582;1093;28489;-83
2021/08/20 07:45:04;;;;;;;5.35;2.70;;;;;;;18.83;67.69;96795.66;127598;1093;25067;-83
2021/08/20 07:47:45;;;;;;;3.73;2.75;;;;;;;19.01;67.50;96793.66;127566;1093;23785;-83
2021/08/20 07:50:17;;;;;;;3.23;2.33;;;;;;;19.11;66.82;96797.83;127577;1093;25003;-83
2021/08/20 07:52:49;;;;;;;4.38;2.85;;;;;;;19.18;66.70;96804.26;127546;1093;34345;-83
2021/08/20 07:55:22;;;;;;;3.53;2.40;;;;;;;19.34;66.79;96804.44;127528;1093;45679;-83
2021/08/20 07:57:55;;;;;;;3.48;2.40;;;;;;;19.50;66.15;96804.61;127687;1093;28065;-83
2021/08/20 08:00:29;;;;;;;3.03;2.30;;;;;;;19.65;65.24;96804.02;127566;1093;25958;-83
2021/08/20 08:03:02;;;;;;;4.30;2.50;;;;;;;19.79;65.34;96806.41;127586;1093;76956;-83
2021/08/20 08:05:34;;;;;;;3.68;2.30;;;;;;;19.96;64.71;96803.53;127589;1093;27168;-83
2021/08/20 08:08:06;;;;;;;3.53;2.38;;;;;;;20.13;64.50;96800.66;127550;1093;23987;-83
2021/08/20 08:10:37;;;;;;;3.83;2.18;;;;;;;20.26;63.73;96797.95;127555;1092;25813;-83
2021/08/20 08:13:09;;;;;;;3.50;2.40;;;;;;;20.33;63.69;96808.97;127585;1093;24441;-83
2021/08/20 08:15:40;;;;;;;3.98;2.13;;;;;;;20.41;63.73;96808.09;127581;1093;26242;-83
2021/08/20 08:18:12;;;;;;;4.10;2.73;;;;;;;20.56;63.55;96807.44;127596;1093;24759;-83
2021/08/20 08:20:43;;;;;;;4.60;2.20;;;;;;;20.66;62.67;96806.96;127538;1093;28790;-83
2021/08/20 08:23:15;;;;;;;3.20;2.38;;;;;;;20.66;62.06;96798.88;127530;1093;35713;-83
2021/08/20 08:25:47;;;;;;;4.08;2.50;;;;;;;20.63;61.93;96804.95;127544;1093;25195;-83
2021/08/20 08:28:20;;;;;;;3.68;2.30;;;;;;;20.64;62.04;96806.52;127579;1092;26761;-83
2021/08/20 08:30:52;;;;;;;2.93;2.03;;;;;;;20.80;61.88;96811.22;127643;1093;27829;-83
2021/08/20 08:33:23;;;;;;;4.05;2.20;;;;;;;20.91;61.80;96807.72;127628;1093;24058;-83
2021/08/20 08:35:55;;;;;;;3.50;2.60;;;;;;;21.05;61.54;96810.05;127638;1093;25342;-83
2021/08/20 08:38:26;;;;;;;3.68;2.30;;;;;;;21.23;61.53;96808.64;127567;1093;26745;-82
2021/08/20 08:40:58;;;;;;;3.58;2.40;;;;;;;21.42;61.45;96815.38;127553;1092;26609;-83
2021/08/20 08:43:30;;;;;;;4.38;2.60;;;;;;;21.46;60.94;96808.94;127593;1093;24602;-82
2021/08/20 08:46:04;;;;;;;3.27;2.27;;;;;;;21.57;60.48;96811.94;127583;1092;23889;-82
2021/08/20 08:48:41;;;;;;;3.80;2.40;;;;;;;21.74;60.29;96808.14;127581;1093;27366;-83
2021/08/20 08:51:15;;;;;;;3.10;2.10;;;;;;;22.01;59.90;96814.63;127596;1093;27615;-83
2021/08/20 08:53:46;;;;;;;4.80;2.55;;;;;;;22.32;59.21;96820.06;127597;1092;28144;-83
2021/08/20 08:56:21;;;;;;;3.65;2.20;;;;;;;22.54;58.98;96815.19;127602;1093;26509;-83
2021/08/20 08:58:52;;;;;;;5.35;2.45;;;;;;;22.79;59.23;96811.11;127649;1093;25950;-83
2021/08/20 09:01:33;;;;;;;3.50;2.60;;;;;;;23.03;59.07;96810.91;127644;1093;25534;-83
2021/08/20 09:04:13;;;;;;;2.70;2.30;;;;;;;23.09;58.48;96808.73;127570;1093;26768;-83
2021/08/20 09:06:46;;;;;;;4.18;2.70;;;;;;;23.08;58.09;96807.95;127599;1093;23835;-83
2021/08/20 09:09:21;;;;;;;4.33;2.60;;;;;;;22.93;57.67;96811.45;127565;1093;28940;-83
2021/08/20 09:11:58;;;;;;;3.40;2.55;;;;;;;23.18;59.33;96803.09;127643;1093;37771;-83
2021/08/20 09:14:35;;;;;;;3.28;2.50;;;;;;;23.49;59.00;96802.95;127653;1093;32485;-83
2021/08/20 09:17:10;;;;;;;2.98;2.18;;;;;;;23.56;55.54;96805.81;127548;1093;25671;-83
2021/08/20 09:19:43;;;;;;;3.78;2.20;;;;;;;23.44;55.21;96802.47;127525;1092;25845;-83
2021/08/20 09:22:14;;;;;;;2.95;2.10;;;;;;;23.54;55.88;96805.38;127526;1092;24091;-83
2021/08/20 09:24:46;;;;;;;3.45;2.00;;;;;;;23.76;54.32;96805.80;127549;1093;28515;-83
2021/08/20 09:27:25;;;;;;;3.20;2.28;;;;;;;23.59;53.20;96805.11;127646;1093;28573;-83
2021/08/20 09:30:06;;;;;;;4.13;2.30;;;;;;;23.62;54.20;96798.98;127626;1093;23439;-83
2021/08/20 09:32:43;;;;;;;3.68;2.00;;;;;;;23.71;52.44;96795.28;127583;1092;26745;-82
2021/08/20 09:35:14;;;;;;;3.13;2.13;;;;;;;23.61;52.14;96792.00;127595;1092;28110;-83
2021/08/20 09:37:46;;;;;;;4.00;2.00;;;;;;;23.60;51.97;96793.15;127597;1093;26546;-83
2021/08/20 09:40:18;;;;;;;3.83;1.90;;;;;;;23.66;52.79;96796.36;127546;1093;27399;-83
2021/08/20 09:42:49;;;;;;;2.48;1.98;;;;;;;23.83;52.57;96795.90;127576;1093;23837;-83
2021/08/20 09:45:23;;;;;;;2.78;1.88;;;;;;;23.63;50.89;96788.94;127569;1093;33438;-83
2021/08/20 09:47:57;;;;;;;2.63;2.03;;;;;;;23.43;50.89;96790.08;127640;1093;25625;-83
2021/08/20 09:50:42;;;;;;;3.58;1.95;;;;;;;23.32;51.91;96795.27;127538;1093;53236;-81
2021/08/20 09:53:16;;;;;;;5.23;2.18;;;;;;;23.39;52.45;96788.09;127552;1092;31252;-82
2021/08/20 09:55:48;;;;;;;3.18;2.20;;;;;;;23.18;50.13;96782.23;127596;1093;24729;-83
2021/08/20 09:58:20;;;;;;;3.68;2.23;;;;;;;22.89;50.11;96775.45;127539;1093;57656;-82
2021/08/20 10:00:51;;;;;;;3.38;2.03;;;;;;;22.78;48.96;96787.92;127691;1093;54387;-82
2021/08/20 10:03:24;;;;;;;2.48;2.08;;;;;;;22.73;49.27;96780.09;127634;1093;23067;-82
2021/08/20 10:05:58;;;;;;;3.53;2.10;;;;;;;22.71;49.09;96776.97;127645;1093;29127;-82
2021/08/20 10:08:31;;;;;;;3.83;2.18;;;;;;;22.67;49.68;96771.48;127645;1093;27405;-82
2021/08/20 10:11:03;;;;;;;3.08;2.30;;;;;;;22.72;49.63;96762.31;127560;1093;24372;-83
2021/08/20 10:13:36;;;;;;;2.13;1.80;;;;;;;22.81;50.94;96765.61;127629;1093;42216;-82
2021/08/20 10:16:12;;;;;;;3.18;2.30;;;;;;;22.94;49.50;96758.16;127587;1093;37158;-82
2021/08/20 10:18:45;;;;;;;4.00;2.50;;;;;;;23.00;50.12;96765.66;127541;1093;29410;-82
2021/08/20 10:21:17;;;;;;;3.18;2.30;;;;;;;23.12;50.29;96763.96;127577;1093;26355;-83
2021/08/20 10:23:50;;;;;;;3.28;2.33;;;;;;;23.17;50.32;96764.45;127591;1092;25933;-82
2021/08/20 10:26:23;;;;;;;3.90;2.50;;;;;;;23.25;49.67;96763.47;127730;1093;26991;-83
2021/08/20 10:28:55;;;;;;;3.13;2.43;;;;;;;23.34;50.05;96768.64;127634;1093;34774;-83
2021/08/20 10:31:27;;;;;;;3.40;2.45;;;;;;;23.43;50.20;96769.21;127582;1093;30534;-82
2021/08/20 10:33:58;;;;;;;3.38;2.60;;;;;;;23.50;49.91;96760.43;127548;1093;34368;-81
2021/08/20 10:36:40;;;;;;;5.95;2.90;;;;;;;23.57;49.44;96758.69;127522;1093;33027;-82
2021/08/20 10:39:26;;;;;;;3.73;2.50;;;;;;;23.60;49.32;96751.77;127604;1093;27801;-82
2021/08/20 10:42:05;;;;;;;7.23;3.45;;;;;;;23.60;47.44;96749.84;127572;1093;24036;-83
2021/08/20 10:44:46;;;;;;;7.60;3.90;;;;;;;23.50;48.42;96750.39;127642;1093;23802;-82
2021/08/20 10:47:29;;;;;;;5.68;3.00;;;;;;;23.51;48.46;96756.61;127606;1093;23507;-83
2021/08/20 10:50:18;;;;;;;5.18;3.25;;;;;;;23.42;49.29;96750.63;127560;1093;24956;-82
2021/08/20 10:52:51;;;;;;;5.55;2.90;;;;;;;23.47;48.02;96748.41;127566;1093;27140;-82
2021/08/20 10:55:32;;;;;;;4.25;2.70;;;;;;;23.47;47.52;96745.70;127583;1093;71526;-82
2021/08/20 10:58:11;;;;;;;4.45;2.60;;;;;;;23.47;47.97;96744.92;127512;1092;30552;-82
2021/08/20 11:00:53;;;;;;;4.93;2.63;;;;;;;23.55;47.80;96743.92;127661;1093;25080;-83
2021/08/20 11:03:49;;;;;;;3.13;2.38;;;;;;;23.50;47.82;96747.69;127618;1093;28717;-83
2021/08/20 11:06:55;;;;;;;4.75;2.50;;;;;;;23.35;47.34;96741.22;127584;1093;24526;-82
2021/08/20 11:09:34;;;;;;;3.70;2.68;;;;;;;23.35;47.00;96748.56;127615;1093;29137;-81
2021/08/20 11:12:07;;;;;;;3.50;2.50;;;;;;;23.40;47.19;96748.29;127612;1093;26315;-83
2021/08/20 11:14:38;;;;;;;4.28;2.60;;;;;;;23.37;46.78;96746.30;127636;1093;26236;-83
2021/08/20 11:17:14;;;;;;;2.95;2.35;;;;;;;23.29;47.25;96744.59;127576;1092;24852;-83
2021/08/20 11:19:55;;;;;;;3.65;2.65;;;;;;;23.32;47.61;96738.45;127640;1093;27453;-83
2021/08/20 11:22:30;;;;;;;3.10;2.40;;;;;;;23.38;48.44;96745.94;127590;1091;27741;-83
2021/08/20 11:25:17;;;;;;;3.73;2.50;;;;;;;23.41;47.84;96736.32;127632;1093;23365;-83
2021/08/20 11:28:04;;;;;;;3.05;2.18;;;;;;;23.46;48.00;96735.23;127645;1093;24644;-83
2021/08/20 11:30:39;;;;;;;2.98;2.18;;;;;;;23.65;46.31;96737.95;127672;1092;25655;-83
2021/08/20 11:33:22;;;;;;;4.73;2.50;;;;;;;23.69;47.29;96741.50;127587;1093;34722;-83
2021/08/20 11:35:59;;;;;;;3.78;2.60;;;;;;;23.75;46.97;96736.56;127680;1093;23825;-83
2021/08/20 11:38:42;;;;;;;2.78;2.00;;;;;;;23.79;48.11;96732.79;127626;1093;32852;-83
2021/08/20 11:41:21;;;;;;;3.85;2.60;;;;;;;23.77;47.28;96734.27;127620;1091;26002;-83
2021/08/20 11:43:55;;;;;;;5.03;3.00;;;;;;;23.69;47.24;96733.38;127656;1093;26501;-83
2021/08/20 11:46:28;;;;;;;2.90;2.60;;;;;;;23.67;48.18;96733.74;127679;1093;24004;-83
2021/08/20 11:49:00;;;;;;;3.05;2.30;;;;;;;23.65;47.86;96738.73;127541;1092;29720;-82
2021/08/20 11:51:34;;;;;;;3.40;2.18;;;;;;;23.64;49.35;96742.56;127619;1092;23479;-82